sensor_id;sensor_type;location;lat;lon;timestamp;P1;durP1;ratioP1;P2;durP2;ratioP2
22675;SDS011;12521;43.310;21.876;2023-03-14T00:04:14;59.0;;;49.0;;
22675;SDS011;12521;43.310;21.876;2023-03-14T00:08:50;59.0;;;49.0;;
22675;SDS011;12521;43.310;21.876;2023-03-14T00:13:27;66.0;;;52.0;;
22675;SDS011;12521;43.310;21.876;2023-03-14T00:18:03;66.0;;;52.0;;
22675;SDS011;12521;43.310;21.876;2023-03-14T00:22:41;72.0;;;55.0;;
22675;SDS011;12521;43.310;21.876;2023-03-14T00:27:17;72.0;;;55.0;;
22675;SDS011;12521;43.310;21.876;2023-03-14T00:31:54;58.0;;;47.0;;
22675;SDS011;12521;43.310;21.876;2023-03-14T00:36:30;58.0;;;47.0;;
22675;SDS011;12521;43.310;21.876;2023-03-14T00:41:09;45.0;;;39.0;;
22675;SDS011;12521;43.310;21.876;2023-03-14T00:45:51;45.0;;;39.0;;
22675;SDS011;12521;43.310;21.876;2023-03-14T00:50:28;44.0;;;39.0;;
22675;SDS011;12521;43.310;21.876;2023-03-14T00:55:05;44.0;;;39.0;;
22675;SDS011;12521;43.310;21.876;2023-03-14T00:59:42;43.0;;;39.0;;
22675;SDS011;12521;43.310;21.876;2023-03-14T01:04:18;43.0;;;39.0;;
22675;SDS011;12521;43.310;21.876;2023-03-14T01:08:55;43.0;;;39.0;;
22675;SDS011;12521;43.310;21.876;2023-03-14T01:13:32;44.0;;;36.0;;
22675;SDS011;12521;43.310;21.876;2023-03-14T01:18:09;44.0;;;36.0;;
22675;SDS011;12521;43.310;21.876;2023-03-14T01:22:45;44.0;;;34.0;;
22675;SDS011;12521;43.310;21.876;2023-03-14T01:27:21;44.0;;;34.0;;
22675;SDS011;12521;43.310;21.876;2023-03-14T01:31:58;44.0;;;35.0;;
22675;SDS011;12521;43.310;21.876;2023-03-14T01:36:35;44.0;;;35.0;;
22675;SDS011;12521;43.310;21.876;2023-03-14T01:41:15;45.0;;;36.0;;
22675;SDS011;12521;43.310;21.876;2023-03-14T01:46:25;45.0;;;36.0;;
22675;SDS011;12521;43.310;21.876;2023-03-14T01:51:21;46.0;;;38.0;;
22675;SDS011;12521;43.310;21.876;2023-03-14T01:56:25;46.0;;;38.0;;
22675;SDS011;12521;43.310;21.876;2023-03-14T02:01:07;47.0;;;40.0;;
22675;SDS011;12521;43.310;21.876;2023-03-14T02:05:47;47.0;;;40.0;;
22675;SDS011;12521;43.310;21.876;2023-03-14T02:10:40;44.0;;;37.0;;
22675;SDS011;12521;43.310;21.876;2023-03-14T02:15:26;44.0;;;37.0;;
22675;SDS011;12521;43.310;21.876;2023-03-14T02:20:21;40.0;;;34.0;;
22675;SDS011;12521;43.310;21.876;2023-03-14T02:25:31;40.0;;;34.0;;
22675;SDS011;12521;43.310;21.876;2023-03-14T02:30:31;44.0;;;34.0;;
22675;SDS011;12521;43.310;21.876;2023-03-14T02:35:14;44.0;;;34.0;;
22675;SDS011;12521;43.310;21.876;2023-03-14T02:40:03;48.0;;;35.0;;
22675;SDS011;12521;43.310;21.876;2023-03-14T02:44:50;48.0;;;35.0;;
22675;SDS011;12521;43.310;21.876;2023-03-14T02:50:14;48.0;;;37.0;;
22675;SDS011;12521;43.310;21.876;2023-03-14T02:55:06;48.0;;;37.0;;
22675;SDS011;12521;43.310;21.876;2023-03-14T02:59:44;48.0;;;39.0;;
22675;SDS011;12521;43.310;21.876;2023-03-14T03:04:21;48.0;;;39.0;;
22675;SDS011;12521;43.310;21.876;2023-03-14T03:08:57;48.0;;;39.0;;
22675;SDS011;12521;43.310;21.876;2023-03-14T03:13:34;43.0;;;34.0;;
22675;SDS011;12521;43.310;21.876;2023-03-14T03:18:11;43.0;;;34.0;;
22675;SDS011;12521;43.310;21.876;2023-03-14T03:22:49;38.0;;;29.0;;
22675;SDS011;12521;43.310;21.876;2023-03-14T03:27:25;38.0;;;29.0;;
22675;SDS011;12521;43.310;21.876;2023-03-14T03:32:02;36.0;;;30.0;;
22675;SDS011;12521;43.310;21.876;2023-03-14T03:36:38;36.0;;;30.0;;
22675;SDS011;12521;43.310;21.876;2023-03-14T03:41:16;35.0;;;31.0;;
22675;SDS011;12521;43.310;21.876;2023-03-14T03:45:52;35.0;;;31.0;;
22675;SDS011;12521;43.310;21.876;2023-03-14T03:50:28;38.0;;;32.0;;
22675;SDS011;12521;43.310;21.876;2023-03-14T03:55:05;38.0;;;32.0;;
22675;SDS011;12521;43.310;21.876;2023-03-14T03:59:43;41.0;;;34.0;;
22675;SDS011;12521;43.310;21.876;2023-03-14T04:04:19;41.0;;;34.0;;
22675;SDS011;12521;43.310;21.876;2023-03-14T04:08:56;41.0;;;34.0;;
22675;SDS011;12521;43.310;21.876;2023-03-14T04:13:32;49.0;;;40.0;;
22675;SDS011;12521;43.310;21.876;2023-03-14T04:18:08;49.0;;;40.0;;
22675;SDS011;12521;43.310;21.876;2023-03-14T04:22:45;57.0;;;47.0;;
22675;SDS011;12521;43.310;21.876;2023-03-14T04:27:21;57.0;;;47.0;;
22675;SDS011;12521;43.310;21.876;2023-03-14T04:31:58;56.0;;;44.0;;
22675;SDS011;12521;43.310;21.876;2023-03-14T04:36:35;56.0;;;44.0;;
22675;SDS011;12521;43.310;21.876;2023-03-14T04:41:12;55.0;;;41.0;;
22675;SDS011;12521;43.310;21.876;2023-03-14T04:45:49;55.0;;;41.0;;
22675;SDS011;12521;43.310;21.876;2023-03-14T04:50:26;52.0;;;40.0;;
22675;SDS011;12521;43.310;21.876;2023-03-14T04:55:04;52.0;;;40.0;;
22675;SDS011;12521;43.310;21.876;2023-03-14T04:59:42;49.0;;;40.0;;
22675;SDS011;12521;43.310;21.876;2023-03-14T05:04:19;49.0;;;40.0;;
22675;SDS011;12521;43.310;21.876;2023-03-14T05:08:55;49.0;;;40.0;;
22675;SDS011;12521;43.310;21.876;2023-03-14T05:13:31;49.0;;;39.0;;
22675;SDS011;12521;43.310;21.876;2023-03-14T05:18:08;49.0;;;39.0;;
22675;SDS011;12521;43.310;21.876;2023-03-14T05:22:44;49.0;;;38.0;;
22675;SDS011;12521;43.310;21.876;2023-03-14T05:27:22;49.0;;;38.0;;
22675;SDS011;12521;43.310;21.876;2023-03-14T05:31:59;64.0;;;47.0;;
22675;SDS011;12521;43.310;21.876;2023-03-14T05:36:36;64.0;;;47.0;;
22675;SDS011;12521;43.310;21.876;2023-03-14T05:41:13;78.0;;;56.0;;
22675;SDS011;12521;43.310;21.876;2023-03-14T05:45:50;78.0;;;56.0;;
22675;SDS011;12521;43.310;21.876;2023-03-14T05:50:26;78.0;;;59.0;;
22675;SDS011;12521;43.310;21.876;2023-03-14T05:55:04;78.0;;;59.0;;
22675;SDS011;12521;43.310;21.876;2023-03-14T05:59:43;79.0;;;62.0;;
22675;SDS011;12521;43.310;21.876;2023-03-14T06:04:19;79.0;;;62.0;;
22675;SDS011;12521;43.310;21.876;2023-03-14T06:08:56;79.0;;;62.0;;
22675;SDS011;12521;43.310;21.876;2023-03-14T06:13:32;72.0;;;56.0;;
22675;SDS011;12521;43.310;21.876;2023-03-14T06:18:08;72.0;;;56.0;;
22675;SDS011;12521;43.310;21.876;2023-03-14T06:22:45;66.0;;;50.0;;
22675;SDS011;12521;43.310;21.876;2023-03-14T06:27:21;66.0;;;50.0;;
22675;SDS011;12521;43.310;21.876;2023-03-14T06:31:57;63.0;;;50.0;;
22675;SDS011;12521;43.310;21.876;2023-03-14T06:36:33;63.0;;;50.0;;
22675;SDS011;12521;43.310;21.876;2023-03-14T06:41:10;60.0;;;49.0;;
22675;SDS011;12521;43.310;21.876;2023-03-14T06:45:46;60.0;;;49.0;;
22675;SDS011;12521;43.310;21.876;2023-03-14T06:50:23;46.0;;;38.0;;
22675;SDS011;12521;43.310;21.876;2023-03-14T06:55:00;46.0;;;38.0;;
22675;SDS011;12521;43.310;21.876;2023-03-14T06:59:37;46.0;;;38.0;;
22675;SDS011;12521;43.310;21.876;2023-03-14T07:04:14;32.0;;;27.0;;
22675;SDS011;12521;43.310;21.876;2023-03-14T07:08:51;32.0;;;27.0;;
22675;SDS011;12521;43.310;21.876;2023-03-14T07:13:27;32.0;;;25.0;;
22675;SDS011;12521;43.310;21.876;2023-03-14T07:18:04;32.0;;;25.0;;
22675;SDS011;12521;43.310;21.876;2023-03-14T07:22:41;32.0;;;23.0;;
22675;SDS011;12521;43.310;21.876;2023-03-14T07:27:18;32.0;;;23.0;;
22675;SDS011;12521;43.310;21.876;2023-03-14T07:31:55;34.0;;;25.0;;
22675;SDS011;12521;43.310;21.876;2023-03-14T07:36:31;34.0;;;25.0;;
22675;SDS011;12521;43.310;21.876;2023-03-14T07:41:08;35.0;;;27.0;;
22675;SDS011;12521;43.310;21.876;2023-03-14T07:45:46;35.0;;;27.0;;
22675;SDS011;12521;43.310;21.876;2023-03-14T07:50:23;30.0;;;23.0;;
22675;SDS011;12521;43.310;21.876;2023-03-14T07:54:59;30.0;;;23.0;;
22675;SDS011;12521;43.310;21.876;2023-03-14T07:59:36;30.0;;;23.0;;
22675;SDS011;12521;43.310;21.876;2023-03-14T08:04:12;24.0;;;19.0;;
22675;SDS011;12521;43.310;21.876;2023-03-14T08:08:48;24.0;;;19.0;;
22675;SDS011;12521;43.310;21.876;2023-03-14T08:13:24;22.0;;;18.0;;
22675;SDS011;12521;43.310;21.876;2023-03-14T08:18:00;22.0;;;18.0;;
22675;SDS011;12521;43.310;21.876;2023-03-14T08:22:37;21.0;;;17.0;;
22675;SDS011;12521;43.310;21.876;2023-03-14T08:27:14;21.0;;;17.0;;
22675;SDS011;12521;43.310;21.876;2023-03-14T08:31:50;22.0;;;18.0;;
22675;SDS011;12521;43.310;21.876;2023-03-14T08:36:28;22.0;;;18.0;;
22675;SDS011;12521;43.310;21.876;2023-03-14T08:41:06;24.0;;;18.0;;
22675;SDS011;12521;43.310;21.876;2023-03-14T08:45:44;24.0;;;18.0;;
22675;SDS011;12521;43.310;21.876;2023-03-14T08:50:21;20.0;;;16.0;;
22675;SDS011;12521;43.310;21.876;2023-03-14T08:54:57;20.0;;;16.0;;
22675;SDS011;12521;43.310;21.876;2023-03-14T08:59:34;20.0;;;16.0;;
22675;SDS011;12521;43.310;21.876;2023-03-14T09:04:11;17.0;;;14.0;;
22675;SDS011;12521;43.310;21.876;2023-03-14T09:08:47;17.0;;;14.0;;
22675;SDS011;12521;43.310;21.876;2023-03-14T09:13:23;16.0;;;14.0;;
22675;SDS011;12521;43.310;21.876;2023-03-14T09:18:00;16.0;;;14.0;;
22675;SDS011;12521;43.310;21.876;2023-03-14T09:22:37;16.0;;;13.0;;
22675;SDS011;12521;43.310;21.876;2023-03-14T09:27:13;16.0;;;13.0;;
22675;SDS011;12521;43.310;21.876;2023-03-14T09:31:49;21.0;;;14.0;;
22675;SDS011;12521;43.310;21.876;2023-03-14T09:36:27;21.0;;;14.0;;
22675;SDS011;12521;43.310;21.876;2023-03-14T09:41:15;26.0;;;15.0;;
22675;SDS011;12521;43.310;21.876;2023-03-14T09:46:09;26.0;;;15.0;;
22675;SDS011;12521;43.310;21.876;2023-03-14T09:50:54;20.0;;;13.0;;
22675;SDS011;12521;43.310;21.876;2023-03-14T09:55:50;20.0;;;13.0;;
22675;SDS011;12521;43.310;21.876;2023-03-14T10:00:33;15.0;;;11.0;;
22675;SDS011;12521;43.310;21.876;2023-03-14T10:05:16;15.0;;;11.0;;
22675;SDS011;12521;43.310;21.876;2023-03-14T10:10:12;16.0;;;11.0;;
22675;SDS011;12521;43.310;21.876;2023-03-14T10:15:03;16.0;;;11.0;;
22675;SDS011;12521;43.310;21.876;2023-03-14T10:19:56;16.0;;;11.0;;
22675;SDS011;12521;43.310;21.876;2023-03-14T10:24:36;16.0;;;11.0;;
22675;SDS011;12521;43.310;21.876;2023-03-14T10:29:12;16.0;;;11.0;;
22675;SDS011;12521;43.310;21.876;2023-03-14T10:33:59;28.0;;;18.0;;
22675;SDS011;12521;43.310;21.876;2023-03-14T10:38:40;28.0;;;18.0;;
22675;SDS011;12521;43.310;21.876;2023-03-14T10:43:22;39.0;;;25.0;;
22675;SDS011;12521;43.310;21.876;2023-03-14T10:48:21;39.0;;;25.0;;
22675;SDS011;12521;43.310;21.876;2023-03-14T10:53:11;28.0;;;19.0;;
22675;SDS011;12521;43.310;21.876;2023-03-14T10:57:53;28.0;;;19.0;;
22675;SDS011;12521;43.310;21.876;2023-03-14T11:02:47;18.0;;;13.0;;
22675;SDS011;12521;43.310;21.876;2023-03-14T11:07:52;18.0;;;13.0;;
22675;SDS011;12521;43.310;21.876;2023-03-14T11:13:00;14.0;;;10.0;;
22675;SDS011;12521;43.310;21.876;2023-03-14T11:18:29;14.0;;;10.0;;
22675;SDS011;12521;43.310;21.876;2023-03-14T11:24:13;10.0;;;8.0;;
22675;SDS011;12521;43.310;21.876;2023-03-14T11:29:39;10.0;;;8.0;;
22675;SDS011;12521;43.310;21.876;2023-03-14T11:34:39;11.0;;;10.0;;
22675;SDS011;12521;43.310;21.876;2023-03-14T11:39:37;11.0;;;10.0;;
22675;SDS011;12521;43.310;21.876;2023-03-14T11:44:32;12.0;;;12.0;;
22675;SDS011;12521;43.310;21.876;2023-03-14T11:49:30;12.0;;;12.0;;
22675;SDS011;12521;43.310;21.876;2023-03-14T11:54:27;12.0;;;10.0;;
22675;SDS011;12521;43.310;21.876;2023-03-14T11:59:28;12.0;;;10.0;;
22675;SDS011;12521;43.310;21.876;2023-03-14T12:04:41;12.0;;;8.0;;
22675;SDS011;12521;43.310;21.876;2023-03-14T12:10:15;9.0;;;6.0;;
22675;SDS011;12521;43.310;21.876;2023-03-14T12:14:55;9.0;;;6.0;;
22675;SDS011;12521;43.310;21.876;2023-03-14T12:20:03;6.0;;;5.0;;
22675;SDS011;12521;43.310;21.876;2023-03-14T12:25:05;6.0;;;5.0;;
22675;SDS011;12521;43.310;21.876;2023-03-14T12:30:17;7.0;;;6.0;;
22675;SDS011;12521;43.310;21.876;2023-03-14T12:35:35;7.0;;;6.0;;
22675;SDS011;12521;43.310;21.876;2023-03-14T12:40:26;8.0;;;7.0;;
22675;SDS011;12521;43.310;21.876;2023-03-14T12:45:36;8.0;;;7.0;;
22675;SDS011;12521;43.310;21.876;2023-03-14T12:50:20;10.0;;;8.0;;
22675;SDS011;12521;43.310;21.876;2023-03-14T12:55:28;10.0;;;8.0;;
22675;SDS011;12521;43.310;21.876;2023-03-14T13:00:32;11.0;;;9.0;;
22675;SDS011;12521;43.310;21.876;2023-03-14T13:05:20;11.0;;;9.0;;
22675;SDS011;12521;43.310;21.876;2023-03-14T13:10:16;10.0;;;9.0;;
22675;SDS011;12521;43.310;21.876;2023-03-14T13:15:01;10.0;;;9.0;;
22675;SDS011;12521;43.310;21.876;2023-03-14T13:20:14;10.0;;;9.0;;
22675;SDS011;12521;43.310;21.876;2023-03-14T13:25:10;10.0;;;9.0;;
22675;SDS011;12521;43.310;21.876;2023-03-14T13:29:49;10.0;;;9.0;;
22675;SDS011;12521;43.310;21.876;2023-03-14T13:34:29;14.0;;;11.0;;
22675;SDS011;12521;43.310;21.876;2023-03-14T13:39:13;14.0;;;11.0;;
22675;SDS011;12521;43.310;21.876;2023-03-14T13:44:05;17.0;;;13.0;;
22675;SDS011;12521;43.310;21.876;2023-03-14T13:49:05;17.0;;;13.0;;
22675;SDS011;12521;43.310;21.876;2023-03-14T13:54:00;13.0;;;10.0;;
22675;SDS011;12521;43.310;21.876;2023-03-14T13:58:40;13.0;;;10.0;;
22675;SDS011;12521;43.310;21.876;2023-03-14T14:03:18;9.0;;;7.0;;
22675;SDS011;12521;43.310;21.876;2023-03-14T14:07:55;9.0;;;7.0;;
22675;SDS011;12521;43.310;21.876;2023-03-14T14:12:37;13.0;;;10.0;;
22675;SDS011;12521;43.310;21.876;2023-03-14T14:17:34;13.0;;;10.0;;
22675;SDS011;12521;43.310;21.876;2023-03-14T14:22:20;17.0;;;13.0;;
22675;SDS011;12521;43.310;21.876;2023-03-14T14:27:01;17.0;;;13.0;;
22675;SDS011;12521;43.310;21.876;2023-03-14T14:32:01;16.0;;;12.0;;
22675;SDS011;12521;43.310;21.876;2023-03-14T14:36:50;16.0;;;12.0;;
22675;SDS011;12521;43.310;21.876;2023-03-14T14:41:30;14.0;;;11.0;;
22675;SDS011;12521;43.310;21.876;2023-03-14T14:46:19;14.0;;;11.0;;
22675;SDS011;12521;43.310;21.876;2023-03-14T14:51:00;14.0;;;12.0;;
22675;SDS011;12521;43.310;21.876;2023-03-14T14:55:43;14.0;;;12.0;;
22675;SDS011;12521;43.310;21.876;2023-03-14T15:00:22;13.0;;;12.0;;
22675;SDS011;12521;43.310;21.876;2023-03-14T15:05:04;13.0;;;12.0;;
22675;SDS011;12521;43.310;21.876;2023-03-14T15:09:52;13.0;;;12.0;;
22675;SDS011;12521;43.310;21.876;2023-03-14T15:14:29;21.0;;;16.0;;
22675;SDS011;12521;43.310;21.876;2023-03-14T15:19:12;21.0;;;16.0;;
22675;SDS011;12521;43.310;21.876;2023-03-14T15:24:04;29.0;;;21.0;;
22675;SDS011;12521;43.310;21.876;2023-03-14T15:28:46;29.0;;;21.0;;
22675;SDS011;12521;43.310;21.876;2023-03-14T15:33:26;32.0;;;22.0;;
22675;SDS011;12521;43.310;21.876;2023-03-14T15:38:04;32.0;;;22.0;;
22675;SDS011;12521;43.310;21.876;2023-03-14T15:42:41;34.0;;;24.0;;
22675;SDS011;12521;43.310;21.876;2023-03-14T15:47:17;34.0;;;24.0;;
22675;SDS011;12521;43.310;21.876;2023-03-14T15:51:54;34.0;;;24.0;;
22675;SDS011;12521;43.310;21.876;2023-03-14T15:56:31;34.0;;;24.0;;
22675;SDS011;12521;43.310;21.876;2023-03-14T16:01:08;33.0;;;23.0;;
22675;SDS011;12521;43.310;21.876;2023-03-14T16:05:45;33.0;;;23.0;;
22675;SDS011;12521;43.310;21.876;2023-03-14T16:10:21;34.0;;;26.0;;
22675;SDS011;12521;43.310;21.876;2023-03-14T16:14:57;34.0;;;26.0;;
22675;SDS011;12521;43.310;21.876;2023-03-14T16:19:34;34.0;;;26.0;;
22675;SDS011;12521;43.310;21.876;2023-03-14T16:24:11;36.0;;;28.0;;
22675;SDS011;12521;43.310;21.876;2023-03-14T16:28:47;36.0;;;28.0;;
22675;SDS011;12521;43.310;21.876;2023-03-14T16:33:24;37.0;;;28.0;;
22675;SDS011;12521;43.310;21.876;2023-03-14T16:38:01;37.0;;;28.0;;
22675;SDS011;12521;43.310;21.876;2023-03-14T16:42:39;38.0;;;28.0;;
22675;SDS011;12521;43.310;21.876;2023-03-14T16:47:16;38.0;;;28.0;;
22675;SDS011;12521;43.310;21.876;2023-03-14T16:51:52;51.0;;;39.0;;
22675;SDS011;12521;43.310;21.876;2023-03-14T16:56:28;51.0;;;39.0;;
22675;SDS011;12521;43.310;21.876;2023-03-14T17:01:05;64.0;;;50.0;;
22675;SDS011;12521;43.310;21.876;2023-03-14T17:05:45;64.0;;;50.0;;
22675;SDS011;12521;43.310;21.876;2023-03-14T17:10:23;54.0;;;42.0;;
22675;SDS011;12521;43.310;21.876;2023-03-14T17:15:00;54.0;;;42.0;;
22675;SDS011;12521;43.310;21.876;2023-03-14T17:19:36;54.0;;;42.0;;
22675;SDS011;12521;43.310;21.876;2023-03-14T17:24:12;44.0;;;34.0;;
22675;SDS011;12521;43.310;21.876;2023-03-14T17:28:49;44.0;;;34.0;;
22675;SDS011;12521;43.310;21.876;2023-03-14T17:33:25;58.0;;;45.0;;
22675;SDS011;12521;43.310;21.876;2023-03-14T17:38:02;58.0;;;45.0;;
22675;SDS011;12521;43.310;21.876;2023-03-14T17:42:40;71.0;;;56.0;;
22675;SDS011;12521;43.310;21.876;2023-03-14T17:47:16;71.0;;;56.0;;
22675;SDS011;12521;43.310;21.876;2023-03-14T17:51:52;90.0;;;67.0;;
22675;SDS011;12521;43.310;21.876;2023-03-14T17:56:29;90.0;;;67.0;;
22675;SDS011;12521;43.310;21.876;2023-03-14T18:01:09;110.0;;;78.0;;
22675;SDS011;12521;43.310;21.876;2023-03-14T18:05:49;110.0;;;78.0;;
22675;SDS011;12521;43.310;21.876;2023-03-14T18:10:26;128.0;;;92.0;;
22675;SDS011;12521;43.310;21.876;2023-03-14T18:15:03;128.0;;;92.0;;
22675;SDS011;12521;43.310;21.876;2023-03-14T18:19:41;128.0;;;92.0;;
22675;SDS011;12521;43.310;21.876;2023-03-14T18:24:19;146.0;;;106.0;;
22675;SDS011;12521;43.310;21.876;2023-03-14T18:28:56;146.0;;;106.0;;
22675;SDS011;12521;43.310;21.876;2023-03-14T18:33:32;95.0;;;73.0;;
22675;SDS011;12521;43.310;21.876;2023-03-14T18:38:09;95.0;;;73.0;;
22675;SDS011;12521;43.310;21.876;2023-03-14T18:42:45;44.0;;;40.0;;
22675;SDS011;12521;43.310;21.876;2023-03-14T18:47:21;44.0;;;40.0;;
22675;SDS011;12521;43.310;21.876;2023-03-14T18:51:58;42.0;;;38.0;;
22675;SDS011;12521;43.310;21.876;2023-03-14T18:56:35;42.0;;;38.0;;
22675;SDS011;12521;43.310;21.876;2023-03-14T19:01:15;41.0;;;35.0;;
22675;SDS011;12521;43.310;21.876;2023-03-14T19:05:52;41.0;;;35.0;;
22675;SDS011;12521;43.310;21.876;2023-03-14T19:10:30;38.0;;;31.0;;
22675;SDS011;12521;43.310;21.876;2023-03-14T19:15:08;38.0;;;31.0;;
22675;SDS011;12521;43.310;21.876;2023-03-14T19:19:46;38.0;;;31.0;;
22675;SDS011;12521;43.310;21.876;2023-03-14T19:24:22;34.0;;;27.0;;
22675;SDS011;12521;43.310;21.876;2023-03-14T19:28:59;34.0;;;27.0;;
22675;SDS011;12521;43.310;21.876;2023-03-14T19:33:36;38.0;;;32.0;;
22675;SDS011;12521;43.310;21.876;2023-03-14T19:38:12;38.0;;;32.0;;
22675;SDS011;12521;43.310;21.876;2023-03-14T19:42:49;42.0;;;38.0;;
22675;SDS011;12521;43.310;21.876;2023-03-14T19:47:25;42.0;;;38.0;;
22675;SDS011;12521;43.310;21.876;2023-03-14T19:52:02;42.0;;;37.0;;
22675;SDS011;12521;43.310;21.876;2023-03-14T19:56:40;42.0;;;37.0;;
22675;SDS011;12521;43.310;21.876;2023-03-14T20:01:16;43.0;;;36.0;;
22675;SDS011;12521;43.310;21.876;2023-03-14T20:05:52;43.0;;;36.0;;
22675;SDS011;12521;43.310;21.876;2023-03-14T20:10:29;54.0;;;43.0;;
22675;SDS011;12521;43.310;21.876;2023-03-14T20:15:07;54.0;;;43.0;;
22675;SDS011;12521;43.310;21.876;2023-03-14T20:19:48;54.0;;;43.0;;
22675;SDS011;12521;43.310;21.876;2023-03-14T20:24:24;66.0;;;50.0;;
22675;SDS011;12521;43.310;21.876;2023-03-14T20:29:01;66.0;;;50.0;;
22675;SDS011;12521;43.310;21.876;2023-03-14T20:33:38;88.0;;;66.0;;
22675;SDS011;12521;43.310;21.876;2023-03-14T20:38:14;88.0;;;66.0;;
22675;SDS011;12521;43.310;21.876;2023-03-14T20:42:50;111.0;;;83.0;;
22675;SDS011;12521;43.310;21.876;2023-03-14T20:47:27;111.0;;;83.0;;
22675;SDS011;12521;43.310;21.876;2023-03-14T20:52:03;120.0;;;86.0;;
22675;SDS011;12521;43.310;21.876;2023-03-14T20:56:40;120.0;;;86.0;;
22675;SDS011;12521;43.310;21.876;2023-03-14T21:01:17;128.0;;;88.0;;
22675;SDS011;12521;43.310;21.876;2023-03-14T21:05:53;128.0;;;88.0;;
22675;SDS011;12521;43.310;21.876;2023-03-14T21:10:30;128.0;;;88.0;;
22675;SDS011;12521;43.310;21.876;2023-03-14T21:15:08;110.0;;;82.0;;
22675;SDS011;12521;43.310;21.876;2023-03-14T21:19:46;110.0;;;82.0;;
22675;SDS011;12521;43.310;21.876;2023-03-14T21:24:22;91.0;;;76.0;;
22675;SDS011;12521;43.310;21.876;2023-03-14T21:28:59;91.0;;;76.0;;
22675;SDS011;12521;43.310;21.876;2023-03-14T21:33:36;91.0;;;76.0;;
22675;SDS011;12521;43.310;21.876;2023-03-14T21:38:14;91.0;;;76.0;;
22675;SDS011;12521;43.310;21.876;2023-03-14T21:52:08;66.0;;;56.0;;
22675;SDS011;12521;43.310;21.876;2023-03-14T21:56:46;66.0;;;56.0;;
22675;SDS011;12521;43.310;21.876;2023-03-14T22:01:22;66.0;;;56.0;;
22675;SDS011;12521;43.310;21.876;2023-03-14T22:06:01;66.0;;;56.0;;
22675;SDS011;12521;43.310;21.876;2023-03-14T22:10:46;52.0;;;43.0;;
22675;SDS011;12521;43.310;21.876;2023-03-14T22:15:23;52.0;;;43.0;;
22675;SDS011;12521;43.310;21.876;2023-03-14T22:20:00;52.0;;;43.0;;
22675;SDS011;12521;43.310;21.876;2023-03-14T22:24:36;39.0;;;30.0;;
22675;SDS011;12521;43.310;21.876;2023-03-14T22:29:12;39.0;;;30.0;;
22675;SDS011;12521;43.310;21.876;2023-03-14T22:33:48;41.0;;;31.0;;
22675;SDS011;12521;43.310;21.876;2023-03-14T22:38:24;41.0;;;31.0;;
22675;SDS011;12521;43.310;21.876;2023-03-14T22:43:00;43.0;;;32.0;;
22675;SDS011;12521;43.310;21.876;2023-03-14T22:47:36;43.0;;;32.0;;
22675;SDS011;12521;43.310;21.876;2023-03-14T22:52:13;41.0;;;30.0;;
22675;SDS011;12521;43.310;21.876;2023-03-14T22:56:49;41.0;;;30.0;;
22675;SDS011;12521;43.310;21.876;2023-03-14T23:01:26;39.0;;;29.0;;
22675;SDS011;12521;43.310;21.876;2023-03-14T23:06:05;39.0;;;29.0;;
22675;SDS011;12521;43.310;21.876;2023-03-14T23:10:42;31.0;;;24.0;;
22675;SDS011;12521;43.310;21.876;2023-03-14T23:15:18;31.0;;;24.0;;
22675;SDS011;12521;43.310;21.876;2023-03-14T23:19:55;31.0;;;24.0;;
22675;SDS011;12521;43.310;21.876;2023-03-14T23:24:31;23.0;;;20.0;;
22675;SDS011;12521;43.310;21.876;2023-03-14T23:29:08;23.0;;;20.0;;
22675;SDS011;12521;43.310;21.876;2023-03-14T23:33:46;24.0;;;20.0;;
22675;SDS011;12521;43.310;21.876;2023-03-14T23:38:24;24.0;;;20.0;;
22675;SDS011;12521;43.310;21.876;2023-03-14T23:43:00;26.0;;;20.0;;
22675;SDS011;12521;43.310;21.876;2023-03-14T23:47:36;26.0;;;20.0;;
22675;SDS011;12521;43.310;21.876;2023-03-14T23:52:13;22.0;;;18.0;;
22675;SDS011;12521;43.310;21.876;2023-03-14T23:56:49;22.0;;;18.0;;
